createdAt,value
2018-01-02T00:02:35.012Z,69.91
2018-01-02T00:17:35.061Z,69.72
2018-01-02T01:02:34.297Z,70.59
2018-01-02T01:17:36.285Z,70.75
2018-01-02T01:32:35.186Z,71.08
2018-01-02T01:47:34.585Z,71.42
2018-01-02T02:02:34.465Z,71.41
2018-01-02T02:17:34.443Z,71.60
2018-01-02T02:32:34.344Z,71.55
2018-01-02T02:47:34.755Z,71.59
2018-01-02T03:02:34.687Z,71.52
2018-01-02T03:17:34.640Z,71.53
2018-01-02T03:32:34.602Z,71.44
2018-01-02T03:47:35.603Z,72.10
2018-01-02T04:02:36.918Z,71.92
2018-01-02T04:17:34.932Z,71.64
2018-01-02T04:32:34.802Z,71.40
2018-01-02T04:47:36.285Z,71.41
2018-01-02T05:02:34.148Z,72.22
2018-01-02T05:17:35.174Z,74.40
2018-01-02T05:32:35.119Z,76.21
2018-01-02T05:47:35.442Z,76.42
2018-01-02T06:02:34.380Z,76.96
2018-01-02T06:17:33.678Z,79.60
2018-01-02T06:32:34.322Z,79.80
2018-01-02T06:47:34.187Z,78.63
2018-01-02T07:02:34.621Z,78.75
2018-01-02T07:17:34.546Z,78.42
2018-01-02T08:02:34.326Z,76.68
2018-01-02T08:17:34.784Z,78.21
2018-01-02T08:32:34.731Z,77.85
2018-01-02T08:47:34.189Z,77.91
2018-01-02T09:17:35.058Z,74.89
2018-01-02T09:47:35.830Z,71.36
2018-01-02T10:02:33.359Z,66.09
2018-01-02T10:17:33.735Z,61.90
2018-01-02T10:32:36.204Z,58.28
2018-01-02T10:47:35.121Z,56.67
2018-01-02T11:02:34.553Z,57.38
2018-01-02T11:17:33.722Z,65.46
2018-01-02T11:32:35.710Z,67.14
2018-01-02T11:47:34.762Z,67.56
2018-01-02T12:02:34.787Z,68.96
2018-01-02T12:17:34.642Z,68.79
2018-01-02T12:32:34.582Z,69.83
2018-01-02T12:47:36.559Z,69.33
2018-01-02T13:02:34.972Z,69.12
2018-01-02T13:17:35.367Z,69.59
2018-01-02T13:32:35.294Z,70.41
2018-01-02T13:47:33.702Z,69.83
2018-01-02T14:02:35.720Z,69.89
2018-01-02T14:17:34.111Z,70.00
2018-01-02T14:32:34.508Z,70.18
2018-01-02T14:47:33.711Z,69.85
2018-01-02T15:02:36.350Z,69.42
2018-01-02T15:17:33.853Z,69.58
2018-01-02T15:32:33.726Z,69.88
2018-01-02T15:47:34.704Z,69.88
2018-01-02T16:02:34.649Z,70.23
2018-01-02T16:17:36.614Z,69.86
2018-01-02T16:32:34.967Z,69.76
2018-01-02T16:47:36.144Z,69.75
2018-01-02T17:02:35.380Z,70.35
2018-01-02T17:17:34.575Z,71.16
2018-01-02T17:32:36.723Z,71.12
2018-01-02T17:47:37.122Z,70.97
2018-01-02T18:02:35.053Z,70.94
2018-01-02T18:17:34.571Z,71.05
2018-01-02T18:32:34.276Z,71.30
2018-01-02T18:47:33.818Z,71.46
2018-01-02T19:02:33.814Z,71.34
2018-01-02T19:17:33.781Z,71.09
2018-01-02T19:32:33.964Z,70.70
2018-01-02T19:47:34.687Z,70.26
2018-01-02T20:02:35.033Z,71.23
2018-01-02T20:17:35.264Z,71.53
2018-01-02T20:32:33.447Z,70.01
2018-01-02T21:32:36.879Z,70.86
2018-01-02T22:17:34.965Z,68.14
2018-01-02T23:47:36.653Z,63.44
